Time;durP1;ratioP1;P1;durP2;ratioP2;P2;SDS_P1;SDS_P2;PMS_P1;PMS_P2;Temp;Humidity;BMP_temperature;BMP_pressure;BME280_temperature;BME280_humidity;BME280_pressure;Samples;Min_cycle;Max_cycle;Signal;HPM_P1;HPM_P2
2022/06/21 00:00:21;;;;;;;0.40;0.40;;;12.90;99.90;;;;;;4291957;33;20092;-66
2022/06/21 00:02:48;;;;;;;0.30;0.30;;;12.90;99.90;;;;;;4299668;33;20112;-66
2022/06/21 00:05:24;;;;;;;0.25;0.25;;;12.90;99.90;;;;;;4300669;33;20095;-66
2022/06/21 00:07:49;;;;;;;0.30;0.30;;;12.80;99.90;;;;;;4299736;33;20081;-67
2022/06/21 00:10:18;;;;;;;0.30;0.30;;;12.80;99.90;;;;;;4304073;33;20108;-67
2022/06/21 00:12:44;;;;;;;0.90;0.35;;;12.90;99.90;;;;;;4304218;33;20137;-66
2022/06/21 00:15:10;;;;;;;0.20;0.20;;;12.90;99.90;;;;;;4300493;33;20099;-66
2022/06/21 00:17:36;;;;;;;0.22;0.22;;;12.80;99.90;;;;;;4298683;33;20081;-66
2022/06/21 00:20:01;;;;;;;0.20;0.20;;;12.80;99.90;;;;;;4303100;33;20080;-66
2022/06/21 00:22:27;;;;;;;0.30;0.30;;;12.80;99.90;;;;;;4278668;33;20080;-66
2022/06/21 00:24:52;;;;;;;4.00;1.62;;;12.80;99.90;;;;;;4287759;33;20104;-66
2022/06/21 00:27:20;;;;;;;0.30;0.30;;;12.80;99.90;;;;;;4301958;33;20443;-67
2022/06/21 00:29:47;;;;;;;0.75;0.73;;;12.80;99.90;;;;;;4301186;33;20143;-67
2022/06/21 00:32:16;;;;;;;0.45;0.45;;;12.80;99.90;;;;;;4301780;33;20088;-66
2022/06/21 00:34:42;;;;;;;0.32;0.30;;;12.80;99.90;;;;;;4302052;33;20438;-66
2022/06/21 00:37:14;;;;;;;0.30;0.30;;;12.80;99.90;;;;;;4304831;33;20125;-66
2022/06/21 00:39:40;;;;;;;0.30;0.30;;;12.80;99.90;;;;;;4303673;33;20072;-66
2022/06/21 00:42:26;;;;;;;0.47;0.30;;;12.80;99.90;;;;;;4302642;33;20136;-66
2022/06/21 00:45:03;;;;;;;0.22;0.22;;;12.80;99.90;;;;;;4301059;33;20180;-66
2022/06/21 00:47:35;;;;;;;0.30;0.30;;;12.80;99.90;;;;;;4303523;33;20092;-66
2022/06/21 00:50:11;;;;;;;0.30;0.30;;;12.80;99.90;;;;;;4302699;33;20116;-66
2022/06/21 00:52:46;;;;;;;0.35;0.35;;;12.80;99.90;;;;;;4281777;33;20503;-66
2022/06/21 00:55:18;;;;;;;0.20;0.20;;;12.80;99.90;;;;;;4293235;33;20372;-67
2022/06/21 00:57:51;;;;;;;3.55;1.00;;;12.70;99.90;;;;;;4301679;33;20072;-66
2022/06/21 01:00:25;;;;;;;0.30;0.30;;;12.70;99.90;;;;;;4302257;33;20125;-66
2022/06/21 01:02:52;;;;;;;0.37;0.37;;;12.70;99.90;;;;;;4288986;33;20092;-66
2022/06/21 01:05:18;;;;;;;0.25;0.25;;;12.70;99.90;;;;;;4303175;33;20151;-66
2022/06/21 01:07:43;;;;;;;0.43;0.43;;;12.70;99.90;;;;;;4303702;33;20154;-66
2022/06/21 01:10:12;;;;;;;0.50;0.50;;;12.80;99.90;;;;;;4301897;33;20183;-66
2022/06/21 01:12:51;;;;;;;0.40;0.40;;;12.80;99.90;;;;;;4301506;33;20148;-66
2022/06/21 01:15:21;;;;;;;0.65;0.57;;;12.80;99.90;;;;;;4302488;33;20505;-66
2022/06/21 01:17:48;;;;;;;0.20;0.20;;;12.80;99.90;;;;;;4303698;33;20077;-66
2022/06/21 01:20:19;;;;;;;0.20;0.20;;;12.70;99.90;;;;;;4304591;33;20064;-66
2022/06/21 01:23:24;;;;;;;1.17;0.60;;;12.80;99.90;;;;;;4277257;33;20083;-66
2022/06/21 01:26:03;;;;;;;0.30;0.30;;;12.80;99.90;;;;;;4297242;33;20140;-67
2022/06/21 01:28:30;;;;;;;0.30;0.30;;;12.80;99.90;;;;;;4301979;33;20068;-67
2022/06/21 01:30:57;;;;;;;0.20;0.20;;;12.80;99.90;;;;;;4299103;33;103770;-67
2022/06/21 01:33:30;;;;;;;1.30;0.28;;;12.80;99.90;;;;;;4300253;33;20075;-66
2022/06/21 01:35:57;;;;;;;2.33;0.85;;;12.90;99.90;;;;;;4303815;33;20056;-66
2022/06/21 01:38:29;;;;;;;0.43;0.43;;;12.70;99.90;;;;;;4299707;33;20152;-66
2022/06/21 01:40:59;;;;;;;0.40;0.40;;;12.80;99.90;;;;;;4301147;33;20084;-66
2022/06/21 01:43:28;;;;;;;0.20;0.20;;;12.70;99.90;;;;;;4300120;33;20793;-66
2022/06/21 01:46:00;;;;;;;0.37;0.30;;;12.80;99.90;;;;;;4299857;33;20052;-66
2022/06/21 01:48:33;;;;;;;0.37;0.37;;;12.70;99.90;;;;;;4304459;33;20144;-66
2022/06/21 01:51:05;;;;;;;4.15;1.20;;;12.70;99.90;;;;;;4296694;33;20061;-66
2022/06/21 01:53:32;;;;;;;0.43;0.43;;;12.80;99.90;;;;;;4277712;33;20303;-66
2022/06/21 01:56:04;;;;;;;0.45;0.45;;;12.80;99.90;;;;;;4305057;33;20413;-66
2022/06/21 01:58:33;;;;;;;0.20;0.20;;;12.90;99.90;;;;;;4306131;33;20552;-66
2022/06/21 02:01:03;;;;;;;1.45;0.43;;;12.90;99.90;;;;;;4306453;33;20142;-66
2022/06/21 02:03:34;;;;;;;0.30;0.30;;;12.90;99.90;;;;;;4304987;33;20073;-66
2022/06/21 02:06:02;;;;;;;;;;;12.80;99.90;;;;;;4306308;33;20100;-66
2022/06/21 02:08:37;;;;;;;1.52;0.80;;;12.70;99.90;;;;;;4306430;33;19975;-66
2022/06/21 02:11:09;;;;;;;0.68;0.68;;;12.60;99.90;;;;;;4303833;33;20060;-66
2022/06/21 02:13:41;;;;;;;0.60;0.60;;;12.70;99.90;;;;;;4304701;33;20089;-66
2022/06/21 02:16:17;;;;;;;0.17;0.17;;;12.60;99.90;;;;;;4304084;33;20081;-66
2022/06/21 02:18:48;;;;;;;0.40;0.40;;;12.50;99.90;;;;;;4306540;33;20092;-66
2022/06/21 02:21:23;;;;;;;0.30;0.30;;;12.50;99.90;;;;;;4294003;33;20149;-66
2022/06/21 02:23:51;;;;;;;0.68;0.68;;;12.40;99.90;;;;;;4278643;33;20083;-66
2022/06/21 02:26:17;;;;;;;0.98;0.55;;;12.40;99.90;;;;;;4303405;33;20064;-66
2022/06/21 02:28:43;;;;;;;0.40;0.40;;;12.40;99.90;;;;;;4304271;33;20434;-66
2022/06/21 02:31:09;;;;;;;0.65;0.65;;;12.40;99.90;;;;;;4304060;33;20124;-66
2022/06/21 02:33:36;;;;;;;0.32;0.32;;;12.40;99.90;;;;;;4305387;33;20434;-66
2022/06/21 02:36:07;;;;;;;0.25;0.25;;;12.40;99.90;;;;;;4303178;33;20108;-66
2022/06/21 02:38:37;;;;;;;1.77;0.60;;;12.40;99.90;;;;;;4303063;33;20072;-66
2022/06/21 02:41:09;;;;;;;0.30;0.30;;;12.40;99.90;;;;;;4305328;33;20080;-66
2022/06/21 02:43:40;;;;;;;0.50;0.50;;;12.40;99.90;;;;;;4301366;33;20522;-66
2022/06/21 02:46:10;;;;;;;1.80;0.70;;;12.40;99.90;;;;;;4289825;33;20482;-66
2022/06/21 02:48:43;;;;;;;0.70;0.70;;;12.40;99.90;;;;;;4303352;33;20080;-66
2022/06/21 02:51:15;;;;;;;0.30;0.30;;;12.40;99.90;;;;;;4298342;33;20487;-66
2022/06/21 02:54:10;;;;;;;0.35;0.35;;;12.40;99.90;;;;;;4277601;33;20072;-66
2022/06/21 02:56:42;;;;;;;8.20;0.73;;;12.50;99.90;;;;;;4302443;33;20088;-66
2022/06/21 02:59:09;;;;;;;0.57;0.57;;;12.40;99.90;;;;;;4305313;33;20071;-66
2022/06/21 03:01:41;;;;;;;0.60;0.60;;;12.30;99.90;;;;;;4303689;33;20443;-66
2022/06/21 03:04:11;;;;;;;1.37;0.55;;;12.30;99.90;;;;;;4307201;33;20076;-66
2022/06/21 03:06:38;;;;;;;0.30;0.30;;;12.20;99.90;;;;;;4305094;33;20096;-66
2022/06/21 03:09:14;;;;;;;0.43;0.43;;;12.10;99.90;;;;;;4304058;33;20390;-66
2022/06/21 03:11:43;;;;;;;0.40;0.40;;;12.10;99.90;;;;;;4305142;33;20077;-66
2022/06/21 03:14:13;;;;;;;0.88;0.45;;;12.20;99.90;;;;;;4306328;33;20083;-66
2022/06/21 03:16:41;;;;;;;0.43;0.43;;;12.10;99.90;;;;;;4302875;33;20073;-67
2022/06/21 03:19:17;;;;;;;0.35;0.35;;;12.10;99.90;;;;;;4307292;33;20186;-66
2022/06/21 03:21:43;;;;;;;0.32;0.32;;;12.10;99.90;;;;;;4290731;33;20121;-66
2022/06/21 03:24:14;;;;;;;0.30;0.30;;;12.10;99.90;;;;;;4283078;33;20080;-66
2022/06/21 03:26:44;;;;;;;2.40;0.73;;;12.10;99.90;;;;;;4303800;33;20088;-66
2022/06/21 03:29:09;;;;;;;0.40;0.40;;;12.10;99.90;;;;;;4302978;33;20556;-66
2022/06/21 03:31:39;;;;;;;0.20;0.20;;;12.10;99.90;;;;;;4303307;33;20068;-66
2022/06/21 03:34:08;;;;;;;1.52;0.73;;;12.20;99.90;;;;;;4293290;33;20130;-66
2022/06/21 03:36:34;;;;;;;9.65;0.40;;;12.10;99.90;;;;;;4305097;33;20540;-66
2022/06/21 03:39:07;;;;;;;0.30;0.30;;;12.20;99.90;;;;;;4305449;33;20079;-66
2022/06/21 03:41:48;;;;;;;0.37;0.37;;;12.30;99.90;;;;;;4304726;33;20085;-66
2022/06/21 03:44:20;;;;;;;0.35;0.35;;;12.20;99.90;;;;;;4301839;33;20073;-66
2022/06/21 03:46:51;;;;;;;0.50;0.50;;;12.30;99.90;;;;;;4302318;33;20397;-66
2022/06/21 03:49:21;;;;;;;;;;;12.30;99.90;;;;;;4305034;33;20076;-66
2022/06/21 03:51:48;;;;;;;0.30;0.30;;;12.30;99.90;;;;;;4290169;33;20115;-66
2022/06/21 03:54:22;;;;;;;0.30;0.30;;;12.30;99.90;;;;;;4284101;33;20096;-66
2022/06/21 03:56:53;;;;;;;1.65;0.77;;;12.40;99.90;;;;;;4302172;33;20055;-66
2022/06/21 03:59:42;;;;;;;0.68;0.57;;;12.40;99.90;;;;;;4303952;33;20076;-66
2022/06/21 04:02:17;;;;;;;0.30;0.30;;;12.40;99.90;;;;;;4302144;33;20060;-66
2022/06/21 04:04:55;;;;;;;0.90;0.50;;;12.40;99.90;;;;;;4303132;33;20087;-66
2022/06/21 04:07:41;;;;;;;0.30;0.30;;;12.50;99.90;;;;;;4304681;33;20071;-66
2022/06/21 04:10:30;;;;;;;1.08;0.93;;;12.50;99.90;;;;;;4304540;33;20092;-66
2022/06/21 04:13:02;;;;;;;1.77;0.43;;;12.50;99.90;;;;;;4302664;33;20068;-66
2022/06/21 04:15:51;;;;;;;0.40;0.40;;;12.50;99.90;;;;;;4301705;33;20143;-66
2022/06/21 04:18:25;;;;;;;0.37;0.37;;;12.60;99.90;;;;;;4305286;33;20091;-67
2022/06/21 04:21:03;;;;;;;5.37;0.82;;;12.60;99.90;;;;;;4292721;33;20147;-66
2022/06/21 04:23:58;;;;;;;0.50;0.50;;;12.60;99.90;;;;;;4237843;33;20096;-66
2022/06/21 04:26:30;;;;;;;0.50;0.50;;;12.70;99.90;;;;;;4245874;33;20076;-66
2022/06/21 04:29:06;;;;;;;0.43;0.43;;;12.70;99.90;;;;;;4243917;33;21228;-66
2022/06/21 04:31:39;;;;;;;0.57;0.52;;;12.80;99.90;;;;;;4237170;33;20499;-66
2022/06/21 04:34:15;;;;;;;1.52;0.50;;;12.80;99.90;;;;;;4289778;33;20640;-66
2022/06/21 04:36:47;;;;;;;0.30;0.30;;;12.90;99.90;;;;;;4301830;33;20075;-66
2022/06/21 04:39:20;;;;;;;0.30;0.30;;;12.80;99.90;;;;;;4303554;33;20115;-66
2022/06/21 04:41:51;;;;;;;0.40;0.40;;;12.90;99.90;;;;;;4301003;33;20450;-66
2022/06/21 04:44:22;;;;;;;0.30;0.30;;;12.90;99.90;;;;;;4302011;33;20088;-66
2022/06/21 04:47:04;;;;;;;3.50;0.82;;;12.90;99.90;;;;;;4301499;33;20080;-66
2022/06/21 04:49:44;;;;;;;1.85;1.15;;;12.90;99.90;;;;;;4302198;33;20079;-66
2022/06/21 04:52:26;;;;;;;1.20;0.65;;;13.00;99.90;;;;;;4269067;33;20076;-65
2022/06/21 04:54:51;;;;;;;0.45;0.45;;;13.00;99.90;;;;;;4238695;33;20165;-66
2022/06/21 04:57:20;;;;;;;0.30;0.30;;;12.90;99.90;;;;;;4299591;33;20399;-66
2022/06/21 04:59:50;;;;;;;0.37;0.37;;;12.90;99.90;;;;;;4301971;33;20402;-66
2022/06/21 05:02:18;;;;;;;0.37;0.37;;;13.00;99.90;;;;;;4287047;33;20100;-66
2022/06/21 05:04:46;;;;;;;0.30;0.30;;;13.10;99.90;;;;;;4260478;33;20181;-66
2022/06/21 05:07:22;;;;;;;0.40;0.40;;;13.00;99.90;;;;;;4256123;33;20365;-66
2022/06/21 05:09:50;;;;;;;0.30;0.30;;;13.00;99.90;;;;;;4238984;33;20538;-67
2022/06/21 05:12:28;;;;;;;0.82;0.37;;;13.00;99.90;;;;;;4243793;33;20056;-67
2022/06/21 05:15:00;;;;;;;0.55;0.52;;;13.00;99.90;;;;;;4258123;33;20093;-67
2022/06/21 05:17:27;;;;;;;0.30;0.30;;;13.00;99.90;;;;;;4258996;33;20494;-66
2022/06/21 05:19:56;;;;;;;0.82;0.47;;;13.10;99.90;;;;;;4200105;33;20208;-67
2022/06/21 05:22:39;;;;;;;0.40;0.40;;;13.10;99.90;;;;;;4171707;33;20514;-66
2022/06/21 05:25:19;;;;;;;0.43;0.43;;;13.30;99.90;;;;;;4168574;33;20399;-66
2022/06/21 05:27:51;;;;;;;3.97;0.50;;;13.30;99.90;;;;;;4186692;33;20394;-66
2022/06/21 05:30:42;;;;;;;0.43;0.43;;;13.40;99.90;;;;;;4206245;33;20560;-66
2022/06/21 05:33:15;;;;;;;0.70;0.60;;;13.40;99.90;;;;;;4200790;33;20404;-66
2022/06/21 05:35:43;;;;;;;0.30;0.30;;;13.40;99.90;;;;;;4189792;33;20258;-66
2022/06/21 05:38:19;;;;;;;0.82;0.77;;;13.30;99.90;;;;;;4192005;33;20156;-67
2022/06/21 05:41:09;;;;;;;0.22;0.22;;;13.30;99.90;;;;;;4208698;33;20561;-66
2022/06/21 05:43:38;;;;;;;1.37;0.55;;;13.40;99.90;;;;;;4220301;33;20132;-67
2022/06/21 05:46:11;;;;;;;0.30;0.30;;;13.50;99.90;;;;;;4248487;33;20103;-67
2022/06/21 05:48:40;;;;;;;7.60;1.92;;;13.50;99.90;;;;;;4252761;33;20513;-67
2022/06/21 05:51:09;;;;;;;0.40;0.40;;;13.70;99.90;;;;;;4237378;33;20417;-66
2022/06/21 05:53:40;;;;;;;0.37;0.37;;;13.80;99.90;;;;;;4245054;33;20235;-66
2022/06/21 05:56:11;;;;;;;0.60;0.60;;;13.80;99.90;;;;;;4262064;33;20095;-67
2022/06/21 05:58:44;;;;;;;0.50;0.50;;;13.80;99.90;;;;;;4257671;33;20397;-67
2022/06/21 06:01:19;;;;;;;0.50;0.50;;;13.80;99.90;;;;;;4253601;33;20092;-66
2022/06/21 06:03:55;;;;;;;0.73;0.73;;;13.90;99.90;;;;;;4227485;33;21199;-66
2022/06/21 06:06:21;;;;;;;0.50;0.50;;;14.00;99.90;;;;;;4229780;33;20134;-66
2022/06/21 06:08:53;;;;;;;0.95;0.77;;;14.00;99.90;;;;;;4259068;33;20567;-66
2022/06/21 06:11:23;;;;;;;1.25;0.60;;;14.10;99.90;;;;;;4269825;33;20121;-66
2022/06/21 06:13:50;;;;;;;0.77;0.45;;;14.10;99.90;;;;;;4272050;33;20229;-66
2022/06/21 06:16:37;;;;;;;0.40;0.40;;;14.20;99.90;;;;;;4269777;33;20706;-66
2022/06/21 06:19:11;;;;;;;0.37;0.37;;;14.30;99.90;;;;;;4240448;33;20286;-66
2022/06/21 06:21:49;;;;;;;0.40;0.40;;;14.30;99.90;;;;;;4247457;33;20129;-66
2022/06/21 06:24:21;;;;;;;0.30;0.30;;;14.30;99.90;;;;;;4262447;33;20676;-66
2022/06/21 06:26:53;;;;;;;0.30;0.30;;;14.40;99.90;;;;;;4268942;33;20092;-65
2022/06/21 06:29:28;;;;;;;0.20;0.20;;;14.50;99.90;;;;;;4259189;33;20099;-68
2022/06/21 06:32:00;;;;;;;0.65;0.60;;;14.40;99.90;;;;;;4254433;33;20084;-67
2022/06/21 06:34:34;;;;;;;0.32;0.30;;;14.50;99.90;;;;;;4230667;33;20887;-68
2022/06/21 06:37:04;;;;;;;0.98;0.77;;;14.70;99.90;;;;;;4246030;33;20406;-68
2022/06/21 06:39:33;;;;;;;0.40;0.40;;;14.70;99.90;;;;;;4269810;33;20152;-67
2022/06/21 06:42:06;;;;;;;0.20;0.20;;;14.80;99.90;;;;;;4270991;33;20947;-67
2022/06/21 06:44:37;;;;;;;0.40;0.40;;;14.90;99.90;;;;;;4275282;33;20120;-67
2022/06/21 06:47:07;;;;;;;0.60;0.60;;;14.90;99.90;;;;;;4277182;33;20079;-66
2022/06/21 06:49:39;;;;;;;0.30;0.30;;;15.00;99.90;;;;;;4243099;33;20209;-66
2022/06/21 06:52:11;;;;;;;0.77;0.45;;;15.10;99.90;;;;;;4244450;33;20261;-68
2022/06/21 06:55:00;;;;;;;1.35;0.65;;;15.20;99.90;;;;;;4271687;33;20156;-67
2022/06/21 06:57:32;;;;;;;1.45;0.40;;;15.30;99.90;;;;;;4264928;33;20120;-67
2022/06/21 06:59:59;;;;;;;0.62;0.43;;;15.40;99.90;;;;;;4255761;33;20291;-67
2022/06/21 07:02:32;;;;;;;0.30;0.30;;;15.40;99.90;;;;;;4242123;33;20092;-66
2022/06/21 07:05:11;;;;;;;0.43;0.43;;;15.50;99.90;;;;;;4233029;33;20582;-67
2022/06/21 07:07:45;;;;;;;0.30;0.30;;;15.50;99.90;;;;;;4231582;33;21106;-67
2022/06/21 07:10:16;;;;;;;0.50;0.50;;;15.50;99.90;;;;;;4273883;33;20474;-67
2022/06/21 07:12:42;;;;;;;6.85;0.50;;;15.60;99.90;;;;;;4274606;33;20080;-66
2022/06/21 07:15:10;;;;;;;0.40;0.40;;;15.70;99.90;;;;;;4277784;33;20096;-67
2022/06/21 07:17:54;;;;;;;0.77;0.77;;;15.90;99.90;;;;;;4268781;33;21279;-67
2022/06/21 07:20:24;;;;;;;0.50;0.50;;;15.90;99.90;;;;;;4243554;33;20196;-66
2022/06/21 07:22:52;;;;;;;0.37;0.37;;;16.00;99.90;;;;;;4245178;33;20179;-66
2022/06/21 07:25:34;;;;;;;0.40;0.40;;;16.00;99.90;;;;;;4268362;33;20076;-66
2022/06/21 07:28:10;;;;;;;0.20;0.20;;;16.10;99.90;;;;;;4272948;33;20946;-66
2022/06/21 07:30:39;;;;;;;10.85;1.80;;;16.30;99.90;;;;;;4246117;33;20236;-66
2022/06/21 07:33:12;;;;;;;0.40;0.40;;;16.50;99.90;;;;;;4217820;33;20683;-65
2022/06/21 07:35:45;;;;;;;1.90;0.80;;;16.70;99.90;;;;;;4233697;33;21395;-65
2022/06/21 07:38:25;;;;;;;1.17;0.60;;;16.80;99.90;;;;;;4251442;33;20085;-66
2022/06/21 07:40:59;;;;;;;0.57;0.57;;;16.90;99.90;;;;;;4266961;33;21080;-66
2022/06/21 07:43:35;;;;;;;0.50;0.50;;;17.00;99.90;;;;;;4271764;33;20095;-66
2022/06/21 07:46:04;;;;;;;0.30;0.30;;;17.20;99.90;;;;;;4273398;33;20510;-67
2022/06/21 07:48:37;;;;;;;1.17;0.45;;;17.20;99.90;;;;;;4249251;33;20377;-66
2022/06/21 07:51:07;;;;;;;5.70;0.90;;;17.40;99.90;;;;;;4246059;33;21033;-66
2022/06/21 07:53:46;;;;;;;0.50;0.50;;;17.50;99.90;;;;;;4250297;33;20421;-67
2022/06/21 07:56:16;;;;;;;0.30;0.30;;;17.60;99.90;;;;;;4271452;33;20530;-66
2022/06/21 07:59:04;;;;;;;0.50;0.50;;;17.80;99.90;;;;;;4263289;33;20443;-65
2022/06/21 08:06:53;;;;;;;0.22;0.22;;;18.10;99.90;;;;;;4225435;33;20193;-66
2022/06/21 08:07:41;;;;;;;0.50;0.50;;;18.10;99.90;;;;;;4233869;33;20169;-67
2022/06/21 08:10:17;;;;;;;0.30;0.30;;;18.20;99.90;;;;;;4268747;33;20202;-67
2022/06/21 08:12:42;;;;;;;0.40;0.40;;;18.20;99.90;;;;;;4270145;33;20801;-67
2022/06/21 08:15:08;;;;;;;0.40;0.40;;;18.40;99.90;;;;;;4273813;33;20081;-67
2022/06/21 08:17:46;;;;;;;0.32;0.32;;;18.40;99.90;;;;;;4269961;33;20275;-66
2022/06/21 08:20:17;;;;;;;0.52;0.50;;;18.60;99.90;;;;;;4250565;33;20134;-67
2022/06/21 08:22:47;;;;;;;0.65;0.65;;;18.70;99.90;;;;;;4244141;33;20240;-67
2022/06/21 08:25:38;;;;;;;0.35;0.35;;;18.80;99.90;;;;;;4270198;33;20191;-68
2022/06/21 08:28:14;;;;;;;0.30;0.30;;;18.90;99.90;;;;;;4251022;33;20780;-67
2022/06/21 08:30:48;;;;;;;0.30;0.30;;;19.10;99.90;;;;;;4237690;33;22106;-68
2022/06/21 08:33:30;;;;;;;0.25;0.25;;;19.10;99.90;;;;;;4219999;33;20136;-67
2022/06/21 08:36:02;;;;;;;0.40;0.40;;;19.10;99.90;;;;;;4230278;33;20148;-68
2022/06/21 08:38:43;;;;;;;0.50;0.40;;;19.30;99.90;;;;;;4248124;33;20149;-68
2022/06/21 08:42:08;;;;;;;0.40;0.40;;;19.30;99.90;;;;;;4261192;33;20609;-66
2022/06/21 08:44:48;;;;;;;0.20;0.20;;;19.50;99.90;;;;;;4261824;33;20091;-68
2022/06/21 08:47:54;;;;;;;0.60;0.60;;;19.50;99.90;;;;;;4260350;33;20355;-67
2022/06/21 08:50:59;;;;;;;0.30;0.30;;;19.30;99.50;;;;;;4214962;33;22025;-67
2022/06/21 08:53:38;;;;;;;2.40;0.37;;;19.10;99.50;;;;;;4239559;33;20120;-67
2022/06/21 08:56:21;;;;;;;0.40;0.40;;;19.20;99.50;;;;;;4268037;33;20671;-68
2022/06/21 08:59:09;;;;;;;0.30;0.30;;;19.20;99.80;;;;;;4248338;33;20133;-67
2022/06/21 09:02:01;;;;;;;0.30;0.30;;;19.30;99.70;;;;;;4239982;33;20491;-67
2022/06/21 09:04:35;;;;;;;0.62;0.62;;;19.60;99.80;;;;;;4222868;33;20833;-68
2022/06/21 09:07:23;;;;;;;0.80;0.55;;;19.70;98.00;;;;;;4242306;33;20109;-67
2022/06/21 09:09:58;;;;;;;0.30;0.30;;;19.60;97.20;;;;;;4251811;33;20093;-67
2022/06/21 09:12:41;;;;;;;6.35;0.68;;;19.60;97.80;;;;;;4267921;33;20750;-67
2022/06/21 09:15:35;;;;;;;0.30;0.30;;;19.70;97.70;;;;;;4260735;33;20170;-67
2022/06/21 09:18:07;;;;;;;0.30;0.30;;;19.90;97.80;;;;;;4255584;33;20374;-67
2022/06/21 09:20:51;;;;;;;0.50;0.50;;;20.10;97.50;;;;;;4224865;33;20575;-67
2022/06/21 09:23:57;;;;;;;0.30;0.30;;;20.30;97.40;;;;;;4228211;33;20870;-67
2022/06/21 09:26:46;;;;;;;0.30;0.30;;;20.30;95.80;;;;;;4237841;33;20779;-67
2022/06/21 09:29:33;;;;;;;0.20;0.20;;;20.20;95.20;;;;;;4240577;33;20703;-67
2022/06/21 09:32:10;;;;;;;0.20;0.20;;;20.20;95.40;;;;;;4227564;33;20616;-67
2022/06/21 09:34:58;;;;;;;3.62;0.30;;;20.40;95.80;;;;;;4219181;33;20144;-67
2022/06/21 09:37:34;;;;;;;0.35;0.35;;;20.50;96.10;;;;;;4227512;33;20930;-66
2022/06/21 09:40:21;;;;;;;0.20;0.20;;;20.90;95.80;;;;;;4259018;33;20970;-66
2022/06/21 09:43:00;;;;;;;0.20;0.20;;;21.00;94.80;;;;;;4262716;33;20144;-66
2022/06/21 09:45:53;;;;;;;0.20;0.20;;;21.10;95.60;;;;;;4267414;33;20127;-67
2022/06/21 09:48:59;;;;;;;0.40;0.40;;;21.00;94.50;;;;;;4242343;33;20175;-67
2022/06/21 09:51:34;;;;;;;1.02;0.40;;;21.00;95.10;;;;;;4238090;33;20123;-67
2022/06/21 09:54:11;;;;;;;0.20;0.20;;;21.30;95.00;;;;;;4242375;33;20619;-67
2022/06/21 09:56:50;;;;;;;0.20;0.20;;;21.30;95.60;;;;;;4262123;33;20570;-67
2022/06/21 09:59:25;;;;;;;1.70;0.68;;;21.70;94.70;;;;;;4260831;33;20747;-67
2022/06/21 10:02:08;;;;;;;0.30;0.30;;;21.60;94.40;;;;;;4243189;33;20277;-66
2022/06/21 10:04:59;;;;;;;0.82;0.40;;;21.50;95.30;;;;;;4222450;33;21138;-66
2022/06/21 10:07:55;;;;;;;0.32;0.32;;;21.80;93.70;;;;;;4244924;33;20989;-67
2022/06/21 10:10:32;;;;;;;2.58;0.62;;;22.20;93.70;;;;;;4263430;33;20076;-66
2022/06/21 10:13:06;;;;;;;0.35;0.35;;;22.30;92.40;;;;;;4267532;33;20146;-67
2022/06/21 10:15:41;;;;;;;0.40;0.40;;;22.40;92.80;;;;;;4273648;33;20620;-67
2022/06/21 10:18:19;;;;;;;1.52;0.40;;;22.60;92.70;;;;;;4258755;33;20489;-66
2022/06/21 10:21:02;;;;;;;0.65;0.40;;;22.70;91.90;;;;;;4237440;33;20742;-66
2022/06/21 10:23:53;;;;;;;0.52;0.52;;;22.60;92.10;;;;;;4249106;33;20092;-67
2022/06/21 10:26:52;;;;;;;1.12;0.95;;;22.60;92.00;;;;;;4270430;33;20543;-67
2022/06/21 10:29:39;;;;;;;0.47;0.47;;;22.80;91.20;;;;;;4251836;33;20581;-67
2022/06/21 10:32:23;;;;;;;8.52;0.60;;;23.10;90.90;;;;;;4252393;33;20988;-67
2022/06/21 10:35:04;;;;;;;0.30;0.30;;;23.20;90.60;;;;;;4237544;33;20568;-67
2022/06/21 10:37:40;;;;;;;0.20;0.20;;;23.10;91.30;;;;;;4247766;33;20116;-67
2022/06/21 10:40:20;;;;;;;0.90;0.75;;;23.30;90.90;;;;;;4273560;33;20195;-67
2022/06/21 10:43:06;;;;;;;0.32;0.32;;;23.40;91.40;;;;;;4279788;33;20965;-67
2022/06/21 10:45:41;;;;;;;0.17;0.17;;;24.00;91.10;;;;;;4286911;33;20096;-67
2022/06/21 10:48:35;;;;;;;0.28;0.28;;;24.10;87.20;;;;;;4263540;33;20104;-67
2022/06/21 10:51:26;;;;;;;0.10;0.10;;;24.30;86.80;;;;;;4247423;33;20225;-67
2022/06/21 10:54:05;;;;;;;0.32;0.32;;;24.40;86.50;;;;;;4248663;33;20530;-67
2022/06/21 10:57:14;;;;;;;0.10;0.10;;;24.20;86.10;;;;;;4279559;33;20095;-67
2022/06/21 11:01:23;;;;;;;2.33;0.70;;;24.30;88.60;;;;;;4259997;33;20328;-67
2022/06/21 11:03:05;;;;;;;0.13;0.13;;;24.40;84.60;;;;;;4238703;33;20116;-67
2022/06/21 11:05:53;;;;;;;0.10;0.10;;;24.00;84.90;;;;;;4257284;33;20175;-67
2022/06/21 11:08:56;;;;;;;0.20;0.20;;;24.20;84.20;;;;;;4271653;33;20088;-67
2022/06/21 11:11:48;;;;;;;12.50;0.30;;;24.70;84.70;;;;;;4280496;33;20080;-67
2022/06/21 11:14:39;;;;;;;0.10;0.10;;;24.80;79.30;;;;;;4278349;33;20482;-67
2022/06/21 11:17:14;;;;;;;8.25;0.47;;;25.10;80.40;;;;;;4275677;33;20108;-67
2022/06/21 11:20:00;;;;;;;0.10;0.10;;;25.20;81.20;;;;;;4255470;33;20177;-67
2022/06/21 11:22:39;;;;;;;0.10;0.10;;;25.20;80.50;;;;;;4252846;33;20108;-67
2022/06/21 11:25:38;;;;;;;0.10;0.10;;;25.40;79.30;;;;;;4274545;33;20081;-67
2022/06/21 11:28:31;;;;;;;0.62;0.40;;;25.30;78.30;;;;;;4277808;33;20105;-67
2022/06/21 11:31:16;;;;;;;0.10;0.10;;;25.80;79.30;;;;;;4253773;33;20700;-67
2022/06/21 11:34:01;;;;;;;0.10;0.10;;;26.00;77.20;;;;;;4244860;33;20260;-67
2022/06/21 11:36:52;;;;;;;0.00;0.00;;;26.00;78.80;;;;;;4258824;33;20558;-67
2022/06/21 11:39:26;;;;;;;0.20;0.20;;;26.30;74.50;;;;;;4266421;33;20774;-68
2022/06/21 11:42:06;;;;;;;0.10;0.10;;;27.00;75.40;;;;;;4264785;33;20342;-67
2022/06/21 11:44:58;;;;;;;0.05;0.05;;;27.20;75.80;;;;;;4265424;33;20394;-67
2022/06/21 11:47:50;;;;;;;0.52;0.35;;;27.30;71.20;;;;;;4269479;33;20127;-68
2022/06/21 11:50:23;;;;;;;0.50;0.28;;;27.10;71.60;;;;;;4253434;33;21066;-68
2022/06/21 11:53:00;;;;;;;0.10;0.10;;;27.40;70.10;;;;;;4245764;33;20328;-67
2022/06/21 11:55:48;;;;;;;0.10;0.10;;;27.80;68.30;;;;;;4271611;33;20918;-68
2022/06/21 11:58:36;;;;;;;0.10;0.10;;;27.90;66.40;;;;;;4268309;33;20332;-68
2022/06/21 12:01:29;;;;;;;1.23;0.40;;;28.00;65.20;;;;;;4258111;33;20097;-68
2022/06/21 12:04:10;;;;;;;1.17;0.57;;;27.90;67.30;;;;;;4235892;33;20983;-68
2022/06/21 12:06:43;;;;;;;0.10;0.10;;;27.80;68.50;;;;;;4251874;33;20097;-68
2022/06/21 12:09:17;;;;;;;0.10;0.10;;;28.50;68.70;;;;;;4261971;33;20762;-68
2022/06/21 12:11:58;;;;;;;0.20;0.20;;;29.00;65.00;;;;;;4275940;33;20089;-67
2022/06/21 12:14:31;;;;;;;0.45;0.40;;;29.20;61.40;;;;;;4254975;33;20490;-67
2022/06/21 12:17:20;;;;;;;0.20;0.20;;;29.40;62.00;;;;;;4275721;33;20860;-67
2022/06/21 12:19:50;;;;;;;0.20;0.20;;;29.30;62.70;;;;;;4254617;33;20413;-67
2022/06/21 12:22:30;;;;;;;0.40;0.40;;;29.60;61.50;;;;;;4242318;33;20665;-67
2022/06/21 12:24:56;;;;;;;0.10;0.10;;;29.00;61.60;;;;;;4275184;33;20115;-67
2022/06/21 12:27:22;;;;;;;0.10;0.10;;;29.10;60.40;;;;;;4275902;33;20265;-67
2022/06/21 12:29:48;;;;;;;0.55;0.55;;;28.50;62.40;;;;;;4265108;33;20146;-67
2022/06/21 12:32:20;;;;;;;0.20;0.20;;;29.00;62.40;;;;;;4255230;33;20455;-68
2022/06/21 12:35:01;;;;;;;1.40;0.50;;;29.00;61.90;;;;;;4244104;33;20997;-67
2022/06/21 12:37:36;;;;;;;0.10;0.10;;;28.60;63.00;;;;;;4248545;33;20243;-67
2022/06/21 12:40:16;;;;;;;0.22;0.20;;;28.10;64.60;;;;;;4276350;33;20509;-67
2022/06/21 12:42:49;;;;;;;0.10;0.10;;;28.00;66.00;;;;;;4267060;33;20092;-68
2022/06/21 12:45:43;;;;;;;0.37;0.30;;;28.70;64.40;;;;;;4276273;33;20076;-67
2022/06/21 12:48:35;;;;;;;0.35;0.35;;;29.30;63.60;;;;;;4270795;33;20313;-67
2022/06/21 12:51:11;;;;;;;0.25;0.25;;;29.60;60.10;;;;;;4255699;33;20326;-67
2022/06/21 12:53:48;;;;;;;0.10;0.10;;;29.90;60.80;;;;;;4257774;33;20076;-68
2022/06/21 12:56:33;;;;;;;0.28;0.28;;;30.10;59.80;;;;;;4282870;33;20064;-69
2022/06/21 12:59:23;;;;;;;0.20;0.20;;;30.60;62.60;;;;;;4273781;33;20609;-68
2022/06/21 13:02:15;;;;;;;0.37;0.17;;;31.00;58.00;;;;;;4257404;33;20309;-68
2022/06/21 13:05:08;;;;;;;0.15;0.15;;;29.50;63.40;;;;;;4237397;33;20124;-67
2022/06/21 13:08:14;;;;;;;0.10;0.10;;;29.70;60.40;;;;;;4260026;33;20087;-69
2022/06/21 13:11:04;;;;;;;0.35;0.20;;;30.30;59.90;;;;;;4267243;33;20128;-69
2022/06/21 13:14:00;;;;;;;0.35;0.35;;;30.40;59.00;;;;;;4273937;33;20609;-68
2022/06/21 13:16:55;;;;;;;1.08;0.65;;;30.60;60.40;;;;;;4276163;33;20307;-69
2022/06/21 13:19:34;;;;;;;0.20;0.20;;;31.20;58.50;;;;;;4261534;33;20105;-69
2022/06/21 13:22:32;;;;;;;0.10;0.10;;;30.90;57.30;;;;;;4252280;33;20103;-69
2022/06/21 13:25:23;;;;;;;0.20;0.20;;;31.40;57.60;;;;;;4279565;33;20061;-69
2022/06/21 13:28:11;;;;;;;0.20;0.20;;;31.80;55.90;;;;;;4274862;33;20180;-69
2022/06/21 13:30:48;;;;;;;0.10;0.10;;;32.00;55.70;;;;;;4258487;33;20847;-69
2022/06/21 13:33:33;;;;;;;1.00;0.50;;;32.00;54.90;;;;;;4241051;33;20360;-68
2022/06/21 13:36:20;;;;;;;0.20;0.20;;;31.00;57.50;;;;;;4255515;33;20085;-69
2022/06/21 13:39:15;;;;;;;1.30;0.75;;;31.10;57.10;;;;;;4274691;33;20133;-68
2022/06/21 13:42:49;;;;;;;0.28;0.17;;;30.50;56.40;;;;;;4276574;33;20084;-69